createdAt,value
2023-08-27T00:02:19.581Z,99117.38
2023-08-27T00:04:45.943Z,99116.28
2023-08-27T00:07:12.571Z,99088.16
2023-08-27T00:09:39.248Z,99060.81
2023-08-27T00:12:05.684Z,99041.16
2023-08-27T00:14:32.046Z,99054.13
2023-08-27T00:16:58.409Z,99071.75
2023-08-27T00:19:24.938Z,99085.13
2023-08-27T00:21:52.881Z,99082.81
2023-08-27T00:24:19.333Z,99087.81
2023-08-27T00:26:45.681Z,99092.72
2023-08-27T00:29:12.104Z,99078.31
2023-08-27T00:31:38.548Z,99062.81
2023-08-27T00:34:04.995Z,99051.28
2023-08-27T00:36:31.524Z,99072.66
2023-08-27T00:38:57.908Z,99078.84
2023-08-27T00:41:24.310Z,99098.97
2023-08-27T00:43:50.720Z,99091.28
2023-08-27T00:46:17.410Z,99079.16
2023-08-27T00:48:43.990Z,99062.50
2023-08-27T00:51:10.855Z,99056.16
2023-08-27T00:53:38.466Z,99073.66
2023-08-27T00:56:05.281Z,99088.19
2023-08-27T00:58:32.319Z,99095.53
2023-08-27T01:00:59.241Z,99103.84
2023-08-27T01:03:26.244Z,99121.16
2023-08-27T01:05:53.274Z,99105.53
2023-08-27T01:08:52.660Z,99099.84
2023-08-27T01:11:30.329Z,99107.16
2023-08-27T01:14:00.139Z,99098.88
2023-08-27T01:16:28.284Z,99092.34
2023-08-27T01:18:55.446Z,99104.19
2023-08-27T01:21:26.201Z,99095.16
2023-08-27T01:23:53.083Z,99099.47
2023-08-27T01:26:47.406Z,99098.31
2023-08-27T01:29:39.063Z,99098.47
2023-08-27T01:32:08.700Z,99077.34
2023-08-27T01:34:36.994Z,99068.88
2023-08-27T01:37:04.863Z,99050.38
2023-08-27T01:39:31.684Z,99061.53
2023-08-27T01:41:58.496Z,99061.84
2023-08-27T01:44:24.846Z,99057.88
2023-08-27T01:46:51.437Z,99042.22
2023-08-27T01:49:17.842Z,99043.75
2023-08-27T01:51:44.217Z,99030.91
2023-08-27T01:54:10.699Z,99033.22
2023-08-27T01:56:37.238Z,99029.25
2023-08-27T01:59:03.652Z,99032.41
2023-08-27T02:01:30.140Z,99033.25
2023-08-27T02:03:57.300Z,99036.91
2023-08-27T02:06:23.818Z,99035.25
2023-08-27T02:08:50.519Z,99030.41
2023-08-27T02:11:16.896Z,99049.44
2023-08-27T02:13:43.616Z,99055.25
2023-08-27T02:16:10.095Z,99047.28
2023-08-27T02:18:36.486Z,99054.75
2023-08-27T02:21:03.729Z,99058.59
2023-08-27T02:23:31.019Z,99055.44
2023-08-27T02:25:57.448Z,99031.28
2023-08-27T02:28:23.808Z,99042.59
2023-08-27T02:30:51.829Z,99027.94
2023-08-27T02:33:18.344Z,99010.63
2023-08-27T02:35:44.791Z,99019.28
2023-08-27T02:38:11.236Z,99015.97
2023-08-27T02:40:37.764Z,99013.97
2023-08-27T02:43:04.339Z,99002.66
2023-08-27T02:45:30.747Z,99028.63
2023-08-27T02:47:57.223Z,99031.78
2023-08-27T02:50:23.646Z,99035.97
2023-08-27T02:52:50.023Z,99033.81
2023-08-27T02:55:16.763Z,99045.28
2023-08-27T02:57:43.255Z,99044.28
2023-08-27T03:00:10.343Z,99050.94
2023-08-27T03:02:36.867Z,99047.13
2023-08-27T03:05:05.398Z,99040.97
2023-08-27T03:07:31.937Z,99049.78
2023-08-27T03:09:59.107Z,99051.44
2023-08-27T03:12:25.498Z,99054.94
2023-08-27T03:14:51.933Z,99060.59
2023-08-27T03:17:18.351Z,99060.59
2023-08-27T03:19:44.770Z,99044.47
2023-08-27T03:22:11.169Z,99046.13
2023-08-27T03:24:37.553Z,99042.75
2023-08-27T03:27:04.213Z,99043.78
2023-08-27T03:29:31.057Z,99028.47
2023-08-27T03:31:57.513Z,99005.69
2023-08-27T03:34:24.105Z,99016.69
2023-08-27T03:36:50.815Z,99011.00
2023-08-27T03:39:17.280Z,99010.34
2023-08-27T03:41:43.648Z,99015.00
2023-08-27T03:44:10.037Z,99022.63
2023-08-27T03:46:38.178Z,99009.50
2023-08-27T03:49:07.220Z,99000.69
2023-08-27T03:51:33.641Z,99009.66
2023-08-27T03:54:00.874Z,98989.72
2023-08-27T03:56:27.738Z,99003.38
2023-08-27T03:58:54.209Z,98997.03
2023-08-27T04:01:20.672Z,99007.34
2023-08-27T04:03:47.171Z,98997.84
2023-08-27T04:06:14.692Z,98981.06
2023-08-27T04:08:41.063Z,98985.41
2023-08-27T04:11:07.485Z,98996.69
2023-08-27T04:13:33.920Z,98998.69
2023-08-27T04:16:02.846Z,99007.03
2023-08-27T04:18:31.707Z,98997.03
2023-08-27T04:20:58.079Z,98989.84
2023-08-27T04:23:25.668Z,98994.00
2023-08-27T04:25:53.160Z,98990.03
2023-08-27T04:28:19.909Z,98985.41
2023-08-27T04:30:50.720Z,98986.88
2023-08-27T04:33:17.907Z,98979.03
2023-08-27T04:35:53.601Z,98968.72
2023-08-27T04:38:23.064Z,98972.53
2023-08-27T04:40:51.661Z,98969.22
2023-08-27T04:43:20.112Z,98977.34
2023-08-27T04:45:46.682Z,98985.56
2023-08-27T04:48:13.178Z,98983.03
2023-08-27T04:50:43.597Z,98977.88
2023-08-27T04:53:10.001Z,98978.88
2023-08-27T04:55:36.376Z,98989.06
2023-08-27T04:58:05.156Z,98988.84
2023-08-27T05:00:32.669Z,98984.69
2023-08-27T05:02:59.328Z,98980.34
2023-08-27T05:05:25.929Z,98992.97
2023-08-27T05:07:52.339Z,98986.84
2023-08-27T05:10:18.722Z,98983.69
2023-08-27T05:12:45.180Z,98984.69
2023-08-27T05:15:11.763Z,98995.34
2023-08-27T05:17:38.796Z,98990.69
2023-08-27T05:20:08.204Z,98998.81
2023-08-27T05:22:34.594Z,99011.13
2023-08-27T05:25:00.969Z,98998.81
2023-08-27T05:27:27.523Z,98977.88
2023-08-27T05:29:53.944Z,98984.00
2023-08-27T05:32:21.003Z,99006.81
2023-08-27T05:34:47.404Z,99006.63
2023-08-27T05:37:13.766Z,99001.00
2023-08-27T05:39:40.130Z,98994.66
2023-08-27T05:42:06.543Z,98993.31
2023-08-27T05:44:32.951Z,98848.63
2023-08-27T05:47:00.061Z,98986.00
2023-08-27T05:49:26.563Z,98978.34
2023-08-27T05:51:53.019Z,98997.66
2023-08-27T05:54:19.428Z,98997.84
2023-08-27T05:56:45.782Z,98997.31
2023-08-27T05:59:15.347Z,98997.31
2023-08-27T06:01:43.179Z,98989.72
2023-08-27T06:04:12.721Z,98962.56
2023-08-27T06:06:39.607Z,98977.41
2023-08-27T06:09:05.982Z,98978.38
2023-08-27T06:11:33.000Z,98971.56
2023-08-27T06:13:59.538Z,98962.09
2023-08-27T06:16:25.944Z,98971.41
2023-08-27T06:18:52.417Z,98959.78
2023-08-27T06:21:18.806Z,98964.09
2023-08-27T06:23:45.236Z,98955.78
2023-08-27T06:26:12.241Z,98971.09
2023-08-27T06:28:38.908Z,98979.41
2023-08-27T06:31:05.327Z,98940.44
2023-08-27T06:33:32.179Z,98981.56
2023-08-27T06:35:58.857Z,98991.88
2023-08-27T06:38:25.769Z,98991.88
2023-08-27T06:40:52.234Z,98992.34
2023-08-27T06:43:18.636Z,98982.38
2023-08-27T06:45:46.689Z,98993.84
2023-08-27T06:48:13.307Z,99012.00
2023-08-27T06:50:39.721Z,98998.53
2023-08-27T06:53:06.214Z,98984.72
2023-08-27T06:55:32.783Z,98981.69
2023-08-27T06:57:59.953Z,98993.03
2023-08-27T07:00:26.712Z,98981.19
2023-08-27T07:02:54.150Z,98982.38
2023-08-27T07:05:21.076Z,98968.53
2023-08-27T07:07:47.673Z,98978.19
2023-08-27T07:10:14.113Z,98984.66
2023-08-27T07:12:40.584Z,98993.47
2023-08-27T07:15:08.559Z,98990.81
2023-08-27T07:17:35.516Z,98989.63
2023-08-27T07:20:04.894Z,98981.34
2023-08-27T07:22:31.421Z,99000.97
2023-08-27T07:24:57.830Z,99015.63
2023-08-27T07:27:24.426Z,99024.44
2023-08-27T07:29:50.862Z,99031.25
2023-08-27T07:32:17.537Z,99036.06
2023-08-27T07:34:44.809Z,99013.78
2023-08-27T07:37:13.223Z,99038.41
2023-08-27T07:39:39.827Z,99019.09
2023-08-27T07:42:06.765Z,99026.06
2023-08-27T07:44:33.182Z,99013.75
2023-08-27T07:46:59.731Z,99032.56
2023-08-27T07:49:26.274Z,99031.25
2023-08-27T07:51:54.430Z,99005.63
2023-08-27T07:54:20.821Z,99019.09
2023-08-27T07:56:47.256Z,99031.94
2023-08-27T07:59:13.653Z,99020.41
2023-08-27T08:01:40.016Z,99000.28
2023-08-27T08:04:06.904Z,99026.91
2023-08-27T08:06:33.274Z,99022.72
2023-08-27T08:08:59.637Z,99010.53
2023-08-27T08:11:26.007Z,99015.03
2023-08-27T08:13:52.380Z,99019.06
2023-08-27T08:16:18.867Z,99028.53
2023-08-27T08:18:45.709Z,99022.88
2023-08-27T08:21:12.164Z,99020.06
2023-08-27T08:23:38.591Z,99025.69
2023-08-27T08:26:06.749Z,99030.66
2023-08-27T08:28:33.512Z,99036.47
2023-08-27T08:30:59.964Z,99036.81
2023-08-27T08:33:26.356Z,99026.63
2023-08-27T08:35:52.791Z,99032.81
2023-08-27T08:38:19.624Z,99037.66
2023-08-27T08:40:49.830Z,99041.94
2023-08-27T08:43:25.565Z,99021.44
2023-08-27T08:46:04.885Z,99012.41
2023-08-27T08:48:42.813Z,99012.69
2023-08-27T08:51:13.786Z,99017.28
2023-08-27T08:53:45.989Z,98991.72
2023-08-27T08:56:15.063Z,99019.59
2023-08-27T08:58:51.155Z,99005.75
2023-08-27T09:01:20.414Z,99015.94
2023-08-27T09:03:49.007Z,99010.00
2023-08-27T09:06:19.697Z,98997.28
2023-08-27T09:08:46.934Z,98992.31
2023-08-27T09:11:13.707Z,99009.94
2023-08-27T09:13:40.174Z,98983.91
2023-08-27T09:16:07.397Z,98985.97
2023-08-27T09:18:34.874Z,99007.69
2023-08-27T09:21:02.089Z,99003.38
2023-08-27T09:23:33.407Z,98992.13
2023-08-27T09:26:01.389Z,98987.78
2023-08-27T09:28:27.812Z,98991.72
2023-08-27T09:30:54.309Z,98997.16
2023-08-27T09:33:21.097Z,98987.63
2023-08-27T09:35:49.968Z,98988.69
2023-08-27T09:38:16.723Z,98982.03
2023-08-27T09:40:43.208Z,98981.25
2023-08-27T09:43:10.954Z,98968.84
2023-08-27T09:45:38.851Z,98978.84
2023-08-27T09:48:06.366Z,98978.91
2023-08-27T09:50:33.235Z,98974.47
2023-08-27T09:53:12.227Z,98962.41
2023-08-27T09:55:39.393Z,98956.38
2023-08-27T09:58:06.098Z,98927.56
2023-08-27T10:00:34.027Z,98945.47
2023-08-27T10:03:00.706Z,98935.06
2023-08-27T10:05:35.517Z,98938.03
2023-08-27T10:08:04.171Z,98938.44
2023-08-27T10:10:32.895Z,98941.13
2023-08-27T10:12:59.771Z,98923.59
2023-08-27T10:15:27.881Z,98942.41
2023-08-27T10:17:54.778Z,98940.09
2023-08-27T10:20:22.120Z,98928.50
2023-08-27T10:22:49.145Z,98934.72
2023-08-27T10:25:18.483Z,98923.38
2023-08-27T10:27:49.054Z,98926.28
2023-08-27T10:30:17.293Z,98920.25
2023-08-27T10:32:44.083Z,98932.25
2023-08-27T10:35:11.322Z,98909.50
2023-08-27T10:37:41.317Z,98937.78
2023-08-27T10:40:11.234Z,98926.84
2023-08-27T10:42:37.840Z,98920.44
2023-08-27T10:45:18.734Z,98916.72
2023-08-27T10:48:05.448Z,98924.78
2023-08-27T10:50:50.135Z,98932.63
2023-08-27T10:53:17.849Z,98920.38
2023-08-27T10:55:51.012Z,98947.03
2023-08-27T10:58:22.297Z,98948.66
2023-08-27T11:01:09.769Z,98942.63
2023-08-27T11:03:54.144Z,98943.22
2023-08-27T11:06:21.333Z,98943.34
2023-08-27T11:08:53.588Z,98953.44
2023-08-27T11:11:27.155Z,98944.38
2023-08-27T11:14:19.250Z,98935.72
2023-08-27T11:16:55.628Z,98946.63
2023-08-27T11:19:46.042Z,98955.09
2023-08-27T11:22:20.039Z,98961.09
2023-08-27T11:24:54.683Z,98951.00
2023-08-27T11:27:22.884Z,98951.66
2023-08-27T11:29:52.462Z,98956.63
2023-08-27T11:32:21.041Z,98950.03
2023-08-27T11:34:50.625Z,98936.19
2023-08-27T11:37:19.275Z,98939.97
2023-08-27T11:39:46.223Z,98953.25
2023-08-27T11:42:14.649Z,98943.16
2023-08-27T11:44:52.293Z,98941.13
2023-08-27T11:47:20.176Z,98928.50
2023-08-27T11:49:46.600Z,98944.59
2023-08-27T11:52:15.135Z,98949.94
2023-08-27T11:54:47.553Z,98942.53
2023-08-27T11:57:16.552Z,98946.09
2023-08-27T11:59:43.492Z,98944.00
2023-08-27T12:02:12.883Z,98939.47
2023-08-27T12:04:41.174Z,98919.47
2023-08-27T12:07:07.720Z,98928.63
2023-08-27T12:09:34.563Z,98926.00
2023-08-27T12:12:05.967Z,98938.22
2023-08-27T12:14:32.848Z,98921.47
2023-08-27T12:17:10.540Z,98932.41
2023-08-27T12:19:40.352Z,98920.66
2023-08-27T12:22:07.138Z,98911.78
2023-08-27T12:24:33.554Z,98925.59
2023-08-27T12:27:01.628Z,98915.09
2023-08-27T12:29:30.219Z,98921.06
2023-08-27T12:31:57.179Z,98920.44
2023-08-27T12:34:35.140Z,98915.28
2023-08-27T12:37:01.654Z,98897.72
2023-08-27T12:39:28.021Z,98928.53
2023-08-27T12:41:54.388Z,98919.22
2023-08-27T12:44:20.800Z,98908.47
2023-08-27T12:46:47.157Z,98918.59
2023-08-27T12:49:13.584Z,98922.50
2023-08-27T12:51:39.995Z,98926.22
2023-08-27T12:54:06.475Z,98925.59
2023-08-27T12:56:34.838Z,98916.50
2023-08-27T12:59:01.223Z,98911.13
2023-08-27T13:01:27.591Z,98910.13
2023-08-27T13:03:53.993Z,98908.25
2023-08-27T13:06:20.472Z,98900.19
2023-08-27T13:08:47.224Z,98907.63
2023-08-27T13:11:13.588Z,98910.91
2023-08-27T13:13:40.046Z,98914.44
2023-08-27T13:16:06.475Z,98911.94
2023-08-27T13:18:32.848Z,98913.59
2023-08-27T13:20:59.243Z,98900.56
2023-08-27T13:23:25.675Z,98887.75
2023-08-27T13:25:52.052Z,98892.28
2023-08-27T13:28:18.420Z,98886.47
2023-08-27T13:30:44.784Z,98893.69
2023-08-27T13:33:11.202Z,98908.00
2023-08-27T13:35:38.273Z,98903.66
2023-08-27T13:38:05.256Z,98912.34
2023-08-27T13:40:31.931Z,98903.88
2023-08-27T13:42:58.317Z,98912.16
2023-08-27T13:45:24.660Z,98932.41
2023-08-27T13:47:51.334Z,98928.50
2023-08-27T13:50:18.860Z,98919.19
2023-08-27T13:52:45.925Z,98933.25
2023-08-27T13:55:12.654Z,98929.09
2023-08-27T13:57:39.057Z,98922.91
2023-08-27T14:00:06.562Z,98925.22
2023-08-27T14:02:33.085Z,98921.50
2023-08-27T14:04:59.654Z,98911.34
2023-08-27T14:07:26.002Z,98923.75
2023-08-27T14:09:52.395Z,98906.44
2023-08-27T14:12:18.884Z,98892.75
2023-08-27T14:14:45.454Z,98891.09
2023-08-27T14:17:14.565Z,98907.63
2023-08-27T14:19:41.277Z,98912.19
2023-08-27T14:22:07.878Z,98910.53
2023-08-27T14:24:34.350Z,98891.50
2023-08-27T14:27:00.700Z,98910.75
2023-08-27T14:29:27.149Z,98908.06
2023-08-27T14:31:53.480Z,98913.63
2023-08-27T14:34:19.898Z,98909.50
2023-08-27T14:36:46.302Z,98916.72
2023-08-27T14:39:12.747Z,98907.41
2023-08-27T14:41:40.691Z,98904.94
2023-08-27T14:44:07.138Z,98906.81
2023-08-27T14:46:35.839Z,98895.03
2023-08-27T14:49:02.619Z,98880.16
2023-08-27T14:51:28.966Z,98874.78
2023-08-27T14:53:55.387Z,98904.53
2023-08-27T14:56:21.838Z,98908.47
2023-08-27T14:58:52.889Z,98913.63
2023-08-27T15:01:19.241Z,98904.34
2023-08-27T15:03:46.148Z,98905.56
2023-08-27T15:06:12.756Z,98898.13
2023-08-27T15:08:39.201Z,98894.63
2023-08-27T15:11:05.621Z,98904.50
2023-08-27T15:13:32.034Z,98914.63
2023-08-27T15:15:58.740Z,98915.06
2023-08-27T15:18:26.349Z,98906.16
2023-08-27T15:20:53.275Z,98901.00
2023-08-27T15:23:19.682Z,98896.44
2023-08-27T15:25:46.148Z,98907.81
2023-08-27T15:28:12.898Z,98913.81
2023-08-27T15:30:39.280Z,98901.41
2023-08-27T15:33:06.427Z,98915.88
2023-08-27T15:35:32.814Z,98904.31
2023-08-27T15:37:59.870Z,98922.28
2023-08-27T15:40:26.523Z,98904.31
2023-08-27T15:43:23.157Z,98915.88
2023-08-27T15:45:52.581Z,98911.09
2023-08-27T15:48:19.316Z,98915.44
2023-08-27T15:50:45.800Z,98914.41
2023-08-27T15:53:12.178Z,98913.53
2023-08-27T15:55:38.918Z,98895.72
2023-08-27T15:58:05.256Z,98894.72
2023-08-27T16:00:31.698Z,98906.09
2023-08-27T16:02:58.167Z,98904.66
2023-08-27T16:05:29.582Z,98905.69
2023-08-27T16:07:56.250Z,98915.75
2023-08-27T16:10:22.637Z,98914.50
2023-08-27T16:12:49.124Z,98907.44
2023-08-27T16:15:15.494Z,98916.72
2023-08-27T16:17:41.918Z,98922.31
2023-08-27T16:20:09.112Z,98937.41
2023-08-27T16:22:35.585Z,98942.94
2023-08-27T16:25:02.252Z,98942.94
2023-08-27T16:27:28.648Z,98963.81
2023-08-27T16:29:55.057Z,98990.78
2023-08-27T16:32:21.759Z,99008.22
2023-08-27T16:34:48.205Z,99013.66
2023-08-27T16:37:14.654Z,99006.06
2023-08-27T16:39:41.008Z,99009.81
2023-08-27T16:42:07.429Z,99007.78
2023-08-27T16:44:35.018Z,99013.72
2023-08-27T16:47:01.450Z,99001.09
2023-08-27T16:49:29.586Z,98994.84
2023-08-27T16:51:55.937Z,98984.69
2023-08-27T16:54:22.354Z,98989.22
2023-08-27T16:56:48.764Z,98992.44
2023-08-27T16:59:15.145Z,98991.19
2023-08-27T17:01:41.620Z,98971.09
2023-08-27T17:04:08.113Z,98978.34
2023-08-27T17:06:34.588Z,98993.06
2023-08-27T17:09:00.994Z,98981.25
2023-08-27T17:11:27.465Z,98980.44
2023-08-27T17:13:53.888Z,98989.91
2023-08-27T17:16:20.344Z,98998.97
2023-08-27T17:18:46.760Z,98991.94
2023-08-27T17:21:13.104Z,99000.63
2023-08-27T17:23:39.539Z,98997.31
2023-08-27T17:26:05.928Z,99001.84
2023-08-27T17:28:32.808Z,99005.53
2023-08-27T17:30:59.247Z,99013.00
2023-08-27T17:33:25.704Z,98993.09
2023-08-27T17:35:52.076Z,99007.78
2023-08-27T17:38:18.530Z,99012.94
2023-08-27T17:40:44.876Z,99017.09
2023-08-27T17:43:11.231Z,99009.81
2023-08-27T17:45:45.063Z,99009.81
2023-08-27T17:48:26.287Z,99019.06
2023-08-27T17:50:58.313Z,99016.56
2023-08-27T17:53:25.689Z,99019.00
2023-08-27T17:55:53.935Z,99024.78
2023-08-27T17:58:20.402Z,99014.22
2023-08-27T18:00:46.849Z,99017.31
2023-08-27T18:03:13.757Z,99018.50
2023-08-27T18:05:41.286Z,99021.97
2023-08-27T18:08:07.691Z,99029.06
2023-08-27T18:10:34.121Z,99033.72
2023-08-27T18:13:00.581Z,99011.75
2023-08-27T18:15:28.495Z,99028.66
2023-08-27T18:17:55.064Z,99035.63
2023-08-27T18:20:21.627Z,99034.63
2023-08-27T18:22:47.989Z,99035.09
2023-08-27T18:25:15.049Z,99060.91
2023-08-27T18:27:41.441Z,99058.25
2023-08-27T18:30:08.413Z,99060.25
2023-08-27T18:32:34.864Z,99044.13
2023-08-27T18:35:01.279Z,99060.91
2023-08-27T18:37:27.651Z,99052.25
2023-08-27T18:39:54.024Z,99076.97
2023-08-27T18:42:32.968Z,99087.41
2023-08-27T18:45:00.025Z,99083.22
2023-08-27T18:47:26.502Z,99105.19
2023-08-27T18:49:52.870Z,99107.59
2023-08-27T18:52:19.281Z,99111.09
2023-08-27T18:54:45.819Z,99120.78
2023-08-27T18:57:12.158Z,99115.53
2023-08-27T18:59:40.198Z,99128.03
2023-08-27T19:02:09.185Z,99138.81
2023-08-27T19:04:35.623Z,99135.69
2023-08-27T19:07:02.030Z,99125.25
2023-08-27T19:09:28.428Z,99137.25
2023-08-27T19:11:54.798Z,99142.41
2023-08-27T19:14:21.169Z,99142.50
2023-08-27T19:16:50.485Z,99147.00
2023-08-27T19:19:16.915Z,99130.47
2023-08-27T19:21:43.431Z,99146.41
2023-08-27T19:24:10.683Z,99165.66
2023-08-27T19:26:38.151Z,99162.34
2023-08-27T19:29:05.226Z,99161.28
2023-08-27T19:31:41.201Z,99162.09
2023-08-27T19:34:12.785Z,99163.84
2023-08-27T19:36:39.242Z,99175.03
2023-08-27T19:39:05.801Z,99175.03
2023-08-27T19:41:32.338Z,99182.56
2023-08-27T19:43:58.748Z,99180.47
2023-08-27T19:46:25.222Z,99175.16
2023-08-27T19:48:51.673Z,99172.88
2023-08-27T19:51:18.164Z,99171.53
2023-08-27T19:53:44.528Z,99177.88
2023-08-27T19:56:10.966Z,99186.78
2023-08-27T19:58:37.368Z,99180.13
2023-08-27T20:01:03.910Z,99188.47
2023-08-27T20:03:30.807Z,99193.63
2023-08-27T20:05:57.562Z,99190.47
2023-08-27T20:08:23.941Z,99187.94
2023-08-27T20:10:51.290Z,99184.22
2023-08-27T20:13:20.620Z,99199.72
2023-08-27T20:15:47.546Z,99197.28
2023-08-27T20:18:14.897Z,99185.13
2023-08-27T20:20:41.223Z,99204.91
2023-08-27T20:23:07.966Z,99207.44
2023-08-27T20:25:34.622Z,99219.47
2023-08-27T20:28:01.145Z,99222.13
2023-08-27T20:30:29.270Z,99222.81
2023-08-27T20:32:55.816Z,99223.97
2023-08-27T20:35:25.174Z,99222.78
2023-08-27T20:37:51.668Z,99233.81
2023-08-27T20:40:18.208Z,99217.44
2023-08-27T20:42:47.283Z,99229.47
2023-08-27T20:45:14.059Z,99227.13
2023-08-27T20:47:40.471Z,99235.78
2023-08-27T20:50:07.067Z,99230.13
2023-08-27T20:52:33.681Z,99236.28
2023-08-27T20:55:00.222Z,99241.94
2023-08-27T20:57:27.920Z,99231.78
2023-08-27T20:59:54.569Z,99244.97
2023-08-27T21:02:21.554Z,99253.09
2023-08-27T21:04:48.020Z,99233.44
2023-08-27T21:07:14.418Z,99256.78
2023-08-27T21:09:40.855Z,99246.75
2023-08-27T21:12:07.604Z,99252.75
2023-08-27T21:14:33.943Z,99242.09
2023-08-27T21:17:00.282Z,99253.06
2023-08-27T21:19:26.666Z,99254.69
2023-08-27T21:21:53.018Z,99251.69
2023-08-27T21:24:19.365Z,99252.72
2023-08-27T21:26:45.714Z,99250.66
2023-08-27T21:29:12.077Z,99243.66
2023-08-27T21:31:52.331Z,99250.84
2023-08-27T21:34:20.623Z,99251.84
2023-08-27T21:36:47.010Z,99240.28
2023-08-27T21:39:13.362Z,99262.59
2023-08-27T21:41:39.757Z,99257.44
2023-08-27T21:44:06.426Z,99248.00
2023-08-27T21:46:32.972Z,99259.78
2023-08-27T21:48:59.364Z,99250.47
2023-08-27T21:51:25.773Z,99253.94
2023-08-27T21:53:52.163Z,99256.59
2023-08-27T21:56:18.637Z,99257.09
2023-08-27T21:58:45.141Z,99254.00
2023-08-27T22:01:11.910Z,99254.00
2023-08-27T22:03:38.644Z,99266.13
2023-08-27T22:06:08.314Z,99262.09
2023-08-27T22:08:34.683Z,99270.13
2023-08-27T22:11:01.104Z,99270.78
2023-08-27T22:13:27.539Z,99274.41
2023-08-27T22:15:54.452Z,99265.56
2023-08-27T22:18:21.008Z,99266.41
2023-08-27T22:20:48.228Z,99266.13
2023-08-27T22:23:14.596Z,99257.06
2023-08-27T22:25:41.472Z,99265.44
2023-08-27T22:28:07.917Z,99249.50
2023-08-27T22:30:34.298Z,99270.06
2023-08-27T22:33:00.994Z,99271.31
2023-08-27T22:35:27.782Z,99273.84
2023-08-27T22:37:54.151Z,99283.56
2023-08-27T22:40:21.999Z,99289.38
2023-08-27T22:42:49.522Z,99275.06
2023-08-27T22:45:15.971Z,99278.66
2023-08-27T22:47:42.398Z,99271.66
2023-08-27T22:50:09.797Z,99246.63
2023-08-27T22:52:36.426Z,99278.66
2023-08-27T22:55:03.036Z,99285.72
2023-08-27T22:57:29.451Z,99280.03
2023-08-27T22:59:55.810Z,99266.34
2023-08-27T23:02:22.676Z,99262.25
2023-08-27T23:04:49.220Z,99285.81
2023-08-27T23:07:15.965Z,99287.91
2023-08-27T23:09:42.353Z,99267.13
2023-08-27T23:12:09.304Z,99290.56
2023-08-27T23:14:35.748Z,99289.47
2023-08-27T23:17:02.385Z,99273.59
2023-08-27T23:19:29.426Z,99276.56
2023-08-27T23:21:56.446Z,99262.56
2023-08-27T23:24:23.966Z,99263.53
2023-08-27T23:26:51.007Z,99267.88
2023-08-27T23:29:17.824Z,99269.53
2023-08-27T23:31:44.657Z,99260.34
2023-08-27T23:34:11.057Z,99261.50
2023-08-27T23:36:38.315Z,99274.13
2023-08-27T23:39:05.268Z,99269.06
2023-08-27T23:41:32.616Z,99271.50
2023-08-27T23:43:59.420Z,99267.59
2023-08-27T23:46:25.899Z,99255.00
2023-08-27T23:48:52.338Z,99249.69
2023-08-27T23:51:18.721Z,99254.03
2023-08-27T23:53:45.148Z,99270.81
2023-08-27T23:56:11.529Z,99268.13
2023-08-27T23:58:37.926Z,99274.72
